sensor_id;sensor_type;location;lat;lon;timestamp;temperature;humidity
78536;SHT31;67829;51.968;5.684;2023-08-17T00:01:19;22.0;57.0
78536;SHT31;67829;51.968;5.684;2023-08-17T00:03:47;21.9;57.0
78536;SHT31;67829;51.968;5.684;2023-08-17T00:06:16;21.9;56.9
78536;SHT31;67829;51.968;5.684;2023-08-17T00:08:44;21.9;56.9
78536;SHT31;67829;51.968;5.684;2023-08-17T00:11:13;21.9;56.8
78536;SHT31;67829;51.968;5.684;2023-08-17T00:13:42;21.9;57.0
78536;SHT31;67829;51.968;5.684;2023-08-17T00:16:10;21.9;56.9
78536;SHT31;67829;51.968;5.684;2023-08-17T00:18:39;21.9;57.0
78536;SHT31;67829;51.968;5.684;2023-08-17T00:21:08;21.9;56.8
78536;SHT31;67829;51.968;5.684;2023-08-17T00:23:37;21.9;56.9
78536;SHT31;67829;51.968;5.684;2023-08-17T00:26:06;21.8;56.7
78536;SHT31;67829;51.968;5.684;2023-08-17T00:28:35;21.8;56.9
78536;SHT31;67829;51.968;5.684;2023-08-17T00:31:03;21.8;56.7
78536;SHT31;67829;51.968;5.684;2023-08-17T00:33:32;21.8;56.8
78536;SHT31;67829;51.968;5.684;2023-08-17T00:36:00;21.8;57.2
78536;SHT31;67829;51.968;5.684;2023-08-17T00:38:29;21.8;56.9
78536;SHT31;67829;51.968;5.684;2023-08-17T00:40:57;21.7;57.1
78536;SHT31;67829;51.968;5.684;2023-08-17T00:43:26;21.7;57.0
78536;SHT31;67829;51.968;5.684;2023-08-17T00:45:55;21.7;57.0
78536;SHT31;67829;51.968;5.684;2023-08-17T00:48:25;21.7;57.0
78536;SHT31;67829;51.968;5.684;2023-08-17T00:50:56;21.7;57.1
78536;SHT31;67829;51.968;5.684;2023-08-17T00:53:27;21.6;57.2
78536;SHT31;67829;51.968;5.684;2023-08-17T00:55:59;21.6;57.2
78536;SHT31;67829;51.968;5.684;2023-08-17T00:58:30;21.6;57.2
78536;SHT31;67829;51.968;5.684;2023-08-17T01:00:59;21.6;57.2
78536;SHT31;67829;51.968;5.684;2023-08-17T01:03:28;21.5;57.2
78536;SHT31;67829;51.968;5.684;2023-08-17T01:05:58;21.5;57.5
78536;SHT31;67829;51.968;5.684;2023-08-17T01:08:29;21.5;57.6
78536;SHT31;67829;51.968;5.684;2023-08-17T01:11:04;21.5;57.5
78536;SHT31;67829;51.968;5.684;2023-08-17T01:13:41;21.4;57.8
78536;SHT31;67829;51.968;5.684;2023-08-17T01:16:16;21.4;58.1
78536;SHT31;67829;51.968;5.684;2023-08-17T01:18:50;21.4;58.2
78536;SHT31;67829;51.968;5.684;2023-08-17T01:21:21;21.4;58.6
78536;SHT31;67829;51.968;5.684;2023-08-17T01:23:52;21.3;58.8
78536;SHT31;67829;51.968;5.684;2023-08-17T01:26:25;21.3;59.3
78536;SHT31;67829;51.968;5.684;2023-08-17T01:28:54;21.3;59.2
78536;SHT31;67829;51.968;5.684;2023-08-17T01:31:27;21.2;59.8
78536;SHT31;67829;51.968;5.684;2023-08-17T01:34:04;21.2;59.7
78536;SHT31;67829;51.968;5.684;2023-08-17T01:36:37;21.2;59.9
78536;SHT31;67829;51.968;5.684;2023-08-17T01:39:08;21.2;60.7
78536;SHT31;67829;51.968;5.684;2023-08-17T01:41:40;21.2;61.2
78536;SHT31;67829;51.968;5.684;2023-08-17T01:44:10;21.2;61.8
78536;SHT31;67829;51.968;5.684;2023-08-17T01:46:39;21.1;61.6
78536;SHT31;67829;51.968;5.684;2023-08-17T01:49:09;21.1;61.8
78536;SHT31;67829;51.968;5.684;2023-08-17T01:51:37;21.1;62.0
78536;SHT31;67829;51.968;5.684;2023-08-17T01:54:06;21.0;62.3
78536;SHT31;67829;51.968;5.684;2023-08-17T01:56:35;21.0;61.8
78536;SHT31;67829;51.968;5.684;2023-08-17T01:59:04;21.0;61.8
78536;SHT31;67829;51.968;5.684;2023-08-17T02:01:32;21.0;62.0
78536;SHT31;67829;51.968;5.684;2023-08-17T02:04:01;20.9;62.0
78536;SHT31;67829;51.968;5.684;2023-08-17T02:06:30;20.9;61.8
78536;SHT31;67829;51.968;5.684;2023-08-17T02:08:59;20.9;62.2
78536;SHT31;67829;51.968;5.684;2023-08-17T02:11:27;20.9;62.1
78536;SHT31;67829;51.968;5.684;2023-08-17T02:13:56;20.8;62.3
78536;SHT31;67829;51.968;5.684;2023-08-17T02:16:24;20.8;62.4
78536;SHT31;67829;51.968;5.684;2023-08-17T02:18:55;20.8;62.7
78536;SHT31;67829;51.968;5.684;2023-08-17T02:21:23;20.8;62.5
78536;SHT31;67829;51.968;5.684;2023-08-17T02:23:54;20.8;62.3
78536;SHT31;67829;51.968;5.684;2023-08-17T02:26:22;20.8;62.1
78536;SHT31;67829;51.968;5.684;2023-08-17T02:28:51;20.7;62.5
78536;SHT31;67829;51.968;5.684;2023-08-17T02:31:19;20.7;62.4
78536;SHT31;67829;51.968;5.684;2023-08-17T02:33:48;20.7;62.7
78536;SHT31;67829;51.968;5.684;2023-08-17T02:36:17;20.7;62.2
78536;SHT31;67829;51.968;5.684;2023-08-17T02:38:45;20.7;62.3
78536;SHT31;67829;51.968;5.684;2023-08-17T02:41:16;20.7;62.6
78536;SHT31;67829;51.968;5.684;2023-08-17T02:43:44;20.7;62.6
78536;SHT31;67829;51.968;5.684;2023-08-17T02:46:13;20.7;62.5
78536;SHT31;67829;51.968;5.684;2023-08-17T02:48:42;20.7;62.5
78536;SHT31;67829;51.968;5.684;2023-08-17T02:51:10;20.6;62.8
78536;SHT31;67829;51.968;5.684;2023-08-17T02:53:38;20.6;62.1
78536;SHT31;67829;51.968;5.684;2023-08-17T02:56:07;20.6;61.8
78536;SHT31;67829;51.968;5.684;2023-08-17T02:58:38;20.6;62.1
78536;SHT31;67829;51.968;5.684;2023-08-17T03:01:07;20.6;61.8
78536;SHT31;67829;51.968;5.684;2023-08-17T03:03:36;20.6;61.7
78536;SHT31;67829;51.968;5.684;2023-08-17T03:06:08;20.6;61.8
78536;SHT31;67829;51.968;5.684;2023-08-17T03:08:36;20.6;61.8
78536;SHT31;67829;51.968;5.684;2023-08-17T03:11:05;20.6;61.7
78536;SHT31;67829;51.968;5.684;2023-08-17T03:13:36;20.5;62.0
78536;SHT31;67829;51.968;5.684;2023-08-17T03:16:05;20.5;61.8
78536;SHT31;67829;51.968;5.684;2023-08-17T03:18:33;20.5;61.7
78536;SHT31;67829;51.968;5.684;2023-08-17T03:21:03;20.5;61.5
78536;SHT31;67829;51.968;5.684;2023-08-17T03:23:32;20.5;61.6
78536;SHT31;67829;51.968;5.684;2023-08-17T03:26:03;20.5;61.6
78536;SHT31;67829;51.968;5.684;2023-08-17T03:28:33;20.4;61.6
78536;SHT31;67829;51.968;5.684;2023-08-17T03:31:02;20.4;61.9
78536;SHT31;67829;51.968;5.684;2023-08-17T03:33:31;20.4;61.8
78536;SHT31;67829;51.968;5.684;2023-08-17T03:36:00;20.4;61.6
78536;SHT31;67829;51.968;5.684;2023-08-17T03:38:29;20.4;61.7
78536;SHT31;67829;51.968;5.684;2023-08-17T03:40:57;20.4;61.7
78536;SHT31;67829;51.968;5.684;2023-08-17T03:43:26;20.3;61.5
78536;SHT31;67829;51.968;5.684;2023-08-17T03:45:56;20.3;61.7
78536;SHT31;67829;51.968;5.684;2023-08-17T03:48:25;20.3;61.7
78536;SHT31;67829;51.968;5.684;2023-08-17T03:50:54;20.3;61.7
78536;SHT31;67829;51.968;5.684;2023-08-17T03:53:23;20.3;61.7
78536;SHT31;67829;51.968;5.684;2023-08-17T03:55:52;20.2;62.0
78536;SHT31;67829;51.968;5.684;2023-08-17T03:58:20;20.2;61.9
78536;SHT31;67829;51.968;5.684;2023-08-17T04:00:51;20.2;61.9
78536;SHT31;67829;51.968;5.684;2023-08-17T04:03:19;20.1;62.0
78536;SHT31;67829;51.968;5.684;2023-08-17T04:05:48;20.1;62.1
78536;SHT31;67829;51.968;5.684;2023-08-17T04:08:16;20.1;62.2
78536;SHT31;67829;51.968;5.684;2023-08-17T04:10:47;20.0;62.4
78536;SHT31;67829;51.968;5.684;2023-08-17T04:13:15;20.0;62.5
78536;SHT31;67829;51.968;5.684;2023-08-17T04:15:44;20.0;62.7
78536;SHT31;67829;51.968;5.684;2023-08-17T04:18:12;19.9;62.7
78536;SHT31;67829;51.968;5.684;2023-08-17T04:20:41;19.9;63.0
78536;SHT31;67829;51.968;5.684;2023-08-17T04:23:09;19.9;63.1
78536;SHT31;67829;51.968;5.684;2023-08-17T04:25:38;19.8;63.3
78536;SHT31;67829;51.968;5.684;2023-08-17T04:28:06;19.8;63.4
78536;SHT31;67829;51.968;5.684;2023-08-17T04:30:35;19.8;63.5
78536;SHT31;67829;51.968;5.684;2023-08-17T04:33:06;19.8;63.3
78536;SHT31;67829;51.968;5.684;2023-08-17T04:35:36;19.8;63.4
78536;SHT31;67829;51.968;5.684;2023-08-17T04:38:06;19.8;63.5
78536;SHT31;67829;51.968;5.684;2023-08-17T04:40:35;19.7;63.4
78536;SHT31;67829;51.968;5.684;2023-08-17T04:43:04;19.7;63.5
78536;SHT31;67829;51.968;5.684;2023-08-17T04:45:32;19.7;63.7
78536;SHT31;67829;51.968;5.684;2023-08-17T04:48:01;19.7;63.7
78536;SHT31;67829;51.968;5.684;2023-08-17T04:50:30;19.7;63.8
78536;SHT31;67829;51.968;5.684;2023-08-17T04:52:59;19.7;63.8
78536;SHT31;67829;51.968;5.684;2023-08-17T04:55:29;19.7;63.9
78536;SHT31;67829;51.968;5.684;2023-08-17T04:57:58;19.7;63.8
78536;SHT31;67829;51.968;5.684;2023-08-17T05:00:28;19.7;63.9
78536;SHT31;67829;51.968;5.684;2023-08-17T05:02:57;19.7;63.8
78536;SHT31;67829;51.968;5.684;2023-08-17T05:05:26;19.7;63.9
78536;SHT31;67829;51.968;5.684;2023-08-17T05:07:54;19.7;63.8
78536;SHT31;67829;51.968;5.684;2023-08-17T05:10:23;19.7;63.7
78536;SHT31;67829;51.968;5.684;2023-08-17T05:12:53;19.7;63.7
78536;SHT31;67829;51.968;5.684;2023-08-17T05:15:23;19.7;63.7
78536;SHT31;67829;51.968;5.684;2023-08-17T05:17:51;19.7;63.9
78536;SHT31;67829;51.968;5.684;2023-08-17T05:20:20;19.7;63.9
78536;SHT31;67829;51.968;5.684;2023-08-17T05:22:49;19.8;63.7
78536;SHT31;67829;51.968;5.684;2023-08-17T05:25:17;19.8;63.5
78536;SHT31;67829;51.968;5.684;2023-08-17T05:27:46;19.8;63.5
78536;SHT31;67829;51.968;5.684;2023-08-17T05:30:15;19.8;63.5
78536;SHT31;67829;51.968;5.684;2023-08-17T05:32:44;19.8;63.4
78536;SHT31;67829;51.968;5.684;2023-08-17T05:35:13;19.8;63.5
78536;SHT31;67829;51.968;5.684;2023-08-17T05:37:41;19.8;63.5
78536;SHT31;67829;51.968;5.684;2023-08-17T05:40:10;19.8;63.2
78536;SHT31;67829;51.968;5.684;2023-08-17T05:42:40;19.8;63.6
78536;SHT31;67829;51.968;5.684;2023-08-17T05:45:09;19.8;63.5
78536;SHT31;67829;51.968;5.684;2023-08-17T05:47:38;19.8;63.8
78536;SHT31;67829;51.968;5.684;2023-08-17T05:50:07;19.8;63.8
78536;SHT31;67829;51.968;5.684;2023-08-17T05:52:36;19.8;63.5
78536;SHT31;67829;51.968;5.684;2023-08-17T05:55:05;19.8;64.0
78536;SHT31;67829;51.968;5.684;2023-08-17T05:57:34;19.8;63.9
78536;SHT31;67829;51.968;5.684;2023-08-17T06:00:02;19.8;64.1
78536;SHT31;67829;51.968;5.684;2023-08-17T06:02:31;19.8;63.9
78536;SHT31;67829;51.968;5.684;2023-08-17T06:04:59;19.8;63.6
78536;SHT31;67829;51.968;5.684;2023-08-17T06:07:28;19.9;63.8
78536;SHT31;67829;51.968;5.684;2023-08-17T06:09:56;19.9;63.8
78536;SHT31;67829;51.968;5.684;2023-08-17T06:12:27;19.9;64.2
78536;SHT31;67829;51.968;5.684;2023-08-17T06:14:55;19.9;63.9
78536;SHT31;67829;51.968;5.684;2023-08-17T06:17:24;19.9;63.8
78536;SHT31;67829;51.968;5.684;2023-08-17T06:19:52;20.0;64.1
78536;SHT31;67829;51.968;5.684;2023-08-17T06:22:21;20.0;64.4
78536;SHT31;67829;51.968;5.684;2023-08-17T06:24:51;20.0;64.7
78536;SHT31;67829;51.968;5.684;2023-08-17T06:27:20;20.1;64.6
78536;SHT31;67829;51.968;5.684;2023-08-17T06:29:49;20.2;63.7
78536;SHT31;67829;51.968;5.684;2023-08-17T06:32:17;20.2;63.6
78536;SHT31;67829;51.968;5.684;2023-08-17T06:34:46;20.3;63.5
78536;SHT31;67829;51.968;5.684;2023-08-17T06:37:14;20.3;63.5
78536;SHT31;67829;51.968;5.684;2023-08-17T06:39:43;20.3;64.0
78536;SHT31;67829;51.968;5.684;2023-08-17T06:42:11;20.4;63.5
78536;SHT31;67829;51.968;5.684;2023-08-17T06:44:40;20.4;63.6
78536;SHT31;67829;51.968;5.684;2023-08-17T06:47:08;20.5;63.6
78536;SHT31;67829;51.968;5.684;2023-08-17T06:49:37;20.5;63.4
78536;SHT31;67829;51.968;5.684;2023-08-17T06:52:06;20.6;62.9
78536;SHT31;67829;51.968;5.684;2023-08-17T06:54:34;20.6;62.7
78536;SHT31;67829;51.968;5.684;2023-08-17T06:57:03;20.7;62.3
78536;SHT31;67829;51.968;5.684;2023-08-17T06:59:32;20.7;62.8
78536;SHT31;67829;51.968;5.684;2023-08-17T07:02:01;20.7;62.7
78536;SHT31;67829;51.968;5.684;2023-08-17T07:04:30;20.8;62.5
78536;SHT31;67829;51.968;5.684;2023-08-17T07:06:58;20.8;62.3
78536;SHT31;67829;51.968;5.684;2023-08-17T07:09:28;20.8;62.1
78536;SHT31;67829;51.968;5.684;2023-08-17T07:11:57;20.8;62.6
78536;SHT31;67829;51.968;5.684;2023-08-17T07:14:26;20.9;62.1
78536;SHT31;67829;51.968;5.684;2023-08-17T07:16:54;20.9;62.0
78536;SHT31;67829;51.968;5.684;2023-08-17T07:19:23;20.9;62.3
78536;SHT31;67829;51.968;5.684;2023-08-17T07:21:52;21.0;62.2
78536;SHT31;67829;51.968;5.684;2023-08-17T07:24:23;21.0;62.2
78536;SHT31;67829;51.968;5.684;2023-08-17T07:26:51;21.1;62.2
78536;SHT31;67829;51.968;5.684;2023-08-17T07:29:20;21.1;62.0
78536;SHT31;67829;51.968;5.684;2023-08-17T07:31:48;21.2;62.1
78536;SHT31;67829;51.968;5.684;2023-08-17T07:34:17;21.2;61.8
78536;SHT31;67829;51.968;5.684;2023-08-17T07:36:46;21.2;61.6
78536;SHT31;67829;51.968;5.684;2023-08-17T07:39:15;21.3;61.5
78536;SHT31;67829;51.968;5.684;2023-08-17T07:41:45;21.3;61.9
78536;SHT31;67829;51.968;5.684;2023-08-17T07:44:13;21.3;61.4
78536;SHT31;67829;51.968;5.684;2023-08-17T07:46:42;21.4;62.0
78536;SHT31;67829;51.968;5.684;2023-08-17T07:49:10;21.4;60.6
78536;SHT31;67829;51.968;5.684;2023-08-17T07:51:39;21.4;60.8
78536;SHT31;67829;51.968;5.684;2023-08-17T07:54:10;21.5;60.8
78536;SHT31;67829;51.968;5.684;2023-08-17T07:56:38;21.5;60.8
78536;SHT31;67829;51.968;5.684;2023-08-17T07:59:07;21.6;60.6
78536;SHT31;67829;51.968;5.684;2023-08-17T08:01:35;21.6;60.7
78536;SHT31;67829;51.968;5.684;2023-08-17T08:04:06;21.7;61.4
78536;SHT31;67829;51.968;5.684;2023-08-17T08:06:35;21.7;61.2
78536;SHT31;67829;51.968;5.684;2023-08-17T08:09:03;21.8;61.2
78536;SHT31;67829;51.968;5.684;2023-08-17T08:11:33;21.9;61.2
78536;SHT31;67829;51.968;5.684;2023-08-17T08:14:02;21.9;61.5
78536;SHT31;67829;51.968;5.684;2023-08-17T08:16:30;22.0;60.5
78536;SHT31;67829;51.968;5.684;2023-08-17T08:18:59;22.1;60.3
78536;SHT31;67829;51.968;5.684;2023-08-17T08:21:27;22.1;59.6
78536;SHT31;67829;51.968;5.684;2023-08-17T08:23:56;22.2;59.5
78536;SHT31;67829;51.968;5.684;2023-08-17T08:26:25;22.2;59.3
78536;SHT31;67829;51.968;5.684;2023-08-17T08:28:53;22.3;59.3
78536;SHT31;67829;51.968;5.684;2023-08-17T08:31:22;22.3;59.3
78536;SHT31;67829;51.968;5.684;2023-08-17T08:33:50;22.4;59.7
78536;SHT31;67829;51.968;5.684;2023-08-17T08:36:19;22.4;58.3
78536;SHT31;67829;51.968;5.684;2023-08-17T08:38:48;22.5;59.2
78536;SHT31;67829;51.968;5.684;2023-08-17T08:41:19;22.5;58.9
78536;SHT31;67829;51.968;5.684;2023-08-17T08:43:48;22.5;58.7
78536;SHT31;67829;51.968;5.684;2023-08-17T08:46:17;22.5;58.8
78536;SHT31;67829;51.968;5.684;2023-08-17T08:48:47;22.5;58.3
78536;SHT31;67829;51.968;5.684;2023-08-17T08:51:23;22.5;58.3
78536;SHT31;67829;51.968;5.684;2023-08-17T08:54:01;22.5;58.0
78536;SHT31;67829;51.968;5.684;2023-08-17T08:56:33;22.5;58.3
78536;SHT31;67829;51.968;5.684;2023-08-17T08:59:04;22.5;58.8
78536;SHT31;67829;51.968;5.684;2023-08-17T09:01:33;22.4;58.7
78536;SHT31;67829;51.968;5.684;2023-08-17T09:04:04;22.4;58.9
78536;SHT31;67829;51.968;5.684;2023-08-17T09:06:34;22.4;59.0
78536;SHT31;67829;51.968;5.684;2023-08-17T09:09:04;22.4;59.5
78536;SHT31;67829;51.968;5.684;2023-08-17T09:11:34;22.4;58.8
78536;SHT31;67829;51.968;5.684;2023-08-17T09:14:06;22.4;58.7
78536;SHT31;67829;51.968;5.684;2023-08-17T09:16:34;22.4;59.2
78536;SHT31;67829;51.968;5.684;2023-08-17T09:19:05;22.4;60.0
78536;SHT31;67829;51.968;5.684;2023-08-17T09:21:36;22.4;59.9
78536;SHT31;67829;51.968;5.684;2023-08-17T09:24:09;22.4;59.8
78536;SHT31;67829;51.968;5.684;2023-08-17T09:26:38;22.5;59.4
78536;SHT31;67829;51.968;5.684;2023-08-17T09:29:19;22.5;59.2
78536;SHT31;67829;51.968;5.684;2023-08-17T09:31:49;22.5;59.3
78536;SHT31;67829;51.968;5.684;2023-08-17T09:34:20;22.6;59.2
78536;SHT31;67829;51.968;5.684;2023-08-17T09:36:49;22.6;59.0
78536;SHT31;67829;51.968;5.684;2023-08-17T09:39:17;22.6;59.7
78536;SHT31;67829;51.968;5.684;2023-08-17T09:41:46;22.7;58.9
78536;SHT31;67829;51.968;5.684;2023-08-17T09:44:15;22.7;59.5
78536;SHT31;67829;51.968;5.684;2023-08-17T09:46:48;22.7;58.8
78536;SHT31;67829;51.968;5.684;2023-08-17T09:49:17;22.8;58.4
78536;SHT31;67829;51.968;5.684;2023-08-17T09:51:45;22.8;58.4
78536;SHT31;67829;51.968;5.684;2023-08-17T09:54:21;22.8;58.2
78536;SHT31;67829;51.968;5.684;2023-08-17T09:56:53;22.8;58.5
78536;SHT31;67829;51.968;5.684;2023-08-17T09:59:22;22.8;58.4
78536;SHT31;67829;51.968;5.684;2023-08-17T10:01:52;22.8;59.1
78536;SHT31;67829;51.968;5.684;2023-08-17T10:04:23;22.8;58.9
78536;SHT31;67829;51.968;5.684;2023-08-17T10:06:57;22.8;59.2
78536;SHT31;67829;51.968;5.684;2023-08-17T10:09:32;22.9;58.6
78536;SHT31;67829;51.968;5.684;2023-08-17T10:12:06;22.9;58.3
78536;SHT31;67829;51.968;5.684;2023-08-17T10:14:45;22.9;58.5
78536;SHT31;67829;51.968;5.684;2023-08-17T10:17:20;22.9;58.2
78536;SHT31;67829;51.968;5.684;2023-08-17T10:19:52;22.9;58.9
78536;SHT31;67829;51.968;5.684;2023-08-17T10:22:27;22.9;58.0
78536;SHT31;67829;51.968;5.684;2023-08-17T10:24:58;23.0;58.9
78536;SHT31;67829;51.968;5.684;2023-08-17T10:27:29;23.0;59.0
78536;SHT31;67829;51.968;5.684;2023-08-17T10:29:59;23.0;58.9
78536;SHT31;67829;51.968;5.684;2023-08-17T10:32:29;23.0;59.2
78536;SHT31;67829;51.968;5.684;2023-08-17T10:34:59;23.0;58.4
78536;SHT31;67829;51.968;5.684;2023-08-17T10:37:30;23.0;58.7
78536;SHT31;67829;51.968;5.684;2023-08-17T10:39:59;23.0;58.8
78536;SHT31;67829;51.968;5.684;2023-08-17T10:42:35;23.1;58.5
78536;SHT31;67829;51.968;5.684;2023-08-17T10:45:29;23.1;58.4
78536;SHT31;67829;51.968;5.684;2023-08-17T10:48:27;23.1;58.7
78536;SHT31;67829;51.968;5.684;2023-08-17T10:51:04;23.2;59.3
78536;SHT31;67829;51.968;5.684;2023-08-17T10:53:37;23.2;59.0
78536;SHT31;67829;51.968;5.684;2023-08-17T10:56:16;23.3;57.9
78536;SHT31;67829;51.968;5.684;2023-08-17T10:58:48;23.4;58.6
78536;SHT31;67829;51.968;5.684;2023-08-17T11:01:33;23.4;58.1
78536;SHT31;67829;51.968;5.684;2023-08-17T11:04:11;23.5;58.0
78536;SHT31;67829;51.968;5.684;2023-08-17T11:06:42;23.5;57.7
78536;SHT31;67829;51.968;5.684;2023-08-17T11:09:10;23.6;57.4
78536;SHT31;67829;51.968;5.684;2023-08-17T11:11:40;23.6;57.6
78536;SHT31;67829;51.968;5.684;2023-08-17T11:14:08;23.7;57.0
78536;SHT31;67829;51.968;5.684;2023-08-17T11:16:39;23.7;56.8
78536;SHT31;67829;51.968;5.684;2023-08-17T11:19:09;23.7;56.5
78536;SHT31;67829;51.968;5.684;2023-08-17T11:21:39;23.7;56.5
78536;SHT31;67829;51.968;5.684;2023-08-17T11:24:12;23.7;56.5
78536;SHT31;67829;51.968;5.684;2023-08-17T11:26:41;23.7;56.9
78536;SHT31;67829;51.968;5.684;2023-08-17T11:29:09;23.7;57.4
78536;SHT31;67829;51.968;5.684;2023-08-17T11:31:39;23.7;56.8
78536;SHT31;67829;51.968;5.684;2023-08-17T11:34:14;23.7;57.2
78536;SHT31;67829;51.968;5.684;2023-08-17T11:36:43;23.7;57.7
78536;SHT31;67829;51.968;5.684;2023-08-17T11:39:12;23.7;57.8
78536;SHT31;67829;51.968;5.684;2023-08-17T11:41:40;23.7;57.1
78536;SHT31;67829;51.968;5.684;2023-08-17T11:44:11;23.7;57.3
78536;SHT31;67829;51.968;5.684;2023-08-17T11:46:41;23.7;57.3
78536;SHT31;67829;51.968;5.684;2023-08-17T11:49:09;23.7;57.3
78536;SHT31;67829;51.968;5.684;2023-08-17T11:51:39;23.7;57.3
78536;SHT31;67829;51.968;5.684;2023-08-17T11:54:08;23.7;56.9
78536;SHT31;67829;51.968;5.684;2023-08-17T11:56:37;23.8;56.9
78536;SHT31;67829;51.968;5.684;2023-08-17T11:59:13;23.8;57.5
78536;SHT31;67829;51.968;5.684;2023-08-17T12:01:45;23.8;56.9
78536;SHT31;67829;51.968;5.684;2023-08-17T12:04:14;23.8;56.6
78536;SHT31;67829;51.968;5.684;2023-08-17T12:06:44;23.8;57.0
78536;SHT31;67829;51.968;5.684;2023-08-17T12:09:13;23.8;56.8
78536;SHT31;67829;51.968;5.684;2023-08-17T12:11:44;23.8;57.2
78536;SHT31;67829;51.968;5.684;2023-08-17T12:14:13;23.8;57.5
78536;SHT31;67829;51.968;5.684;2023-08-17T12:16:48;23.8;57.8
78536;SHT31;67829;51.968;5.684;2023-08-17T12:19:19;23.8;57.5
78536;SHT31;67829;51.968;5.684;2023-08-17T12:21:48;23.9;57.2
78536;SHT31;67829;51.968;5.684;2023-08-17T12:24:19;23.9;57.5
78536;SHT31;67829;51.968;5.684;2023-08-17T12:26:48;23.9;57.2
78536;SHT31;67829;51.968;5.684;2023-08-17T12:29:16;23.9;57.1
78536;SHT31;67829;51.968;5.684;2023-08-17T12:31:45;23.9;57.0
78536;SHT31;67829;51.968;5.684;2023-08-17T12:34:14;23.9;57.0
78536;SHT31;67829;51.968;5.684;2023-08-17T12:36:44;23.9;57.5
78536;SHT31;67829;51.968;5.684;2023-08-17T12:39:13;23.9;57.3
78536;SHT31;67829;51.968;5.684;2023-08-17T12:41:42;23.9;56.8
78536;SHT31;67829;51.968;5.684;2023-08-17T12:44:10;23.9;57.8
78536;SHT31;67829;51.968;5.684;2023-08-17T12:46:40;23.9;57.4
78536;SHT31;67829;51.968;5.684;2023-08-17T12:49:11;24.0;57.0
78536;SHT31;67829;51.968;5.684;2023-08-17T12:51:39;24.0;57.5
78536;SHT31;67829;51.968;5.684;2023-08-17T12:54:09;24.0;57.2
78536;SHT31;67829;51.968;5.684;2023-08-17T12:56:37;24.0;56.8
78536;SHT31;67829;51.968;5.684;2023-08-17T12:59:06;24.1;56.7
78536;SHT31;67829;51.968;5.684;2023-08-17T13:01:34;24.1;56.7
78536;SHT31;67829;51.968;5.684;2023-08-17T13:04:03;24.1;57.0
78536;SHT31;67829;51.968;5.684;2023-08-17T13:06:32;24.1;56.9
78536;SHT31;67829;51.968;5.684;2023-08-17T13:09:01;24.1;56.7
78536;SHT31;67829;51.968;5.684;2023-08-17T13:11:30;24.1;57.2
78536;SHT31;67829;51.968;5.684;2023-08-17T13:13:58;24.1;57.2
78536;SHT31;67829;51.968;5.684;2023-08-17T13:16:27;24.1;56.8
78536;SHT31;67829;51.968;5.684;2023-08-17T13:18:55;24.1;57.6
78536;SHT31;67829;51.968;5.684;2023-08-17T13:21:24;24.1;56.9
78536;SHT31;67829;51.968;5.684;2023-08-17T13:23:52;24.1;56.9
78536;SHT31;67829;51.968;5.684;2023-08-17T13:26:22;24.1;57.3
78536;SHT31;67829;51.968;5.684;2023-08-17T13:28:51;24.0;57.7
78536;SHT31;67829;51.968;5.684;2023-08-17T13:31:19;24.0;57.5
78536;SHT31;67829;51.968;5.684;2023-08-17T13:33:48;24.0;57.5
78536;SHT31;67829;51.968;5.684;2023-08-17T13:36:18;24.0;57.5
78536;SHT31;67829;51.968;5.684;2023-08-17T13:38:49;24.0;57.2
78536;SHT31;67829;51.968;5.684;2023-08-17T13:41:17;24.0;57.5
78536;SHT31;67829;51.968;5.684;2023-08-17T13:43:46;24.0;57.5
78536;SHT31;67829;51.968;5.684;2023-08-17T13:46:14;24.0;57.5
78536;SHT31;67829;51.968;5.684;2023-08-17T13:48:43;24.0;57.9
78536;SHT31;67829;51.968;5.684;2023-08-17T13:51:12;24.0;57.7
78536;SHT31;67829;51.968;5.684;2023-08-17T13:53:40;24.0;58.2
78536;SHT31;67829;51.968;5.684;2023-08-17T13:56:12;23.9;57.7
78536;SHT31;67829;51.968;5.684;2023-08-17T13:58:40;23.9;58.0
78536;SHT31;67829;51.968;5.684;2023-08-17T14:01:09;23.9;58.0
78536;SHT31;67829;51.968;5.684;2023-08-17T14:03:38;23.9;57.8
78536;SHT31;67829;51.968;5.684;2023-08-17T14:06:08;23.9;58.0
78536;SHT31;67829;51.968;5.684;2023-08-17T14:08:37;23.9;58.5
78536;SHT31;67829;51.968;5.684;2023-08-17T14:11:05;23.8;58.5
78536;SHT31;67829;51.968;5.684;2023-08-17T14:13:34;23.8;58.7
78536;SHT31;67829;51.968;5.684;2023-08-17T14:16:04;23.8;58.5
78536;SHT31;67829;51.968;5.684;2023-08-17T14:18:33;23.8;58.9
78536;SHT31;67829;51.968;5.684;2023-08-17T14:21:02;23.8;59.3
78536;SHT31;67829;51.968;5.684;2023-08-17T14:23:30;23.8;58.8
78536;SHT31;67829;51.968;5.684;2023-08-17T14:25:59;23.8;59.2
78536;SHT31;67829;51.968;5.684;2023-08-17T14:28:27;23.8;59.0
78536;SHT31;67829;51.968;5.684;2023-08-17T14:30:56;23.8;59.0
78536;SHT31;67829;51.968;5.684;2023-08-17T14:33:24;23.8;59.4
78536;SHT31;67829;51.968;5.684;2023-08-17T14:35:53;23.8;59.7
78536;SHT31;67829;51.968;5.684;2023-08-17T14:38:21;23.8;59.4
78536;SHT31;67829;51.968;5.684;2023-08-17T14:40:50;23.8;59.3
78536;SHT31;67829;51.968;5.684;2023-08-17T14:43:18;23.8;59.5
78536;SHT31;67829;51.968;5.684;2023-08-17T14:45:47;23.8;59.2
78536;SHT31;67829;51.968;5.684;2023-08-17T14:48:16;23.8;58.9
78536;SHT31;67829;51.968;5.684;2023-08-17T14:50:44;23.8;59.4
78536;SHT31;67829;51.968;5.684;2023-08-17T14:53:13;23.8;59.6
78536;SHT31;67829;51.968;5.684;2023-08-17T14:55:41;23.8;59.7
78536;SHT31;67829;51.968;5.684;2023-08-17T14:58:10;23.9;59.5
78536;SHT31;67829;51.968;5.684;2023-08-17T15:00:40;23.9;59.2
78536;SHT31;67829;51.968;5.684;2023-08-17T15:03:09;23.9;59.7
78536;SHT31;67829;51.968;5.684;2023-08-17T15:05:37;23.9;59.7
78536;SHT31;67829;51.968;5.684;2023-08-17T15:08:06;23.9;59.6
78536;SHT31;67829;51.968;5.684;2023-08-17T15:10:34;23.9;59.6
78536;SHT31;67829;51.968;5.684;2023-08-17T15:13:03;23.9;59.5
78536;SHT31;67829;51.968;5.684;2023-08-17T15:15:32;23.8;59.9
78536;SHT31;67829;51.968;5.684;2023-08-17T15:18:01;23.8;60.0
78536;SHT31;67829;51.968;5.684;2023-08-17T15:20:29;23.8;60.0
78536;SHT31;67829;51.968;5.684;2023-08-17T15:22:58;23.8;60.2
78536;SHT31;67829;51.968;5.684;2023-08-17T15:25:26;23.8;60.1
